Acapulco, Mexico

1:44 AM CDT on August 30, 2015 (GMT -0500)
Gen Juan N Alvarez International | | Change Station
CLOSE
Current Station
Airport
Location: Acapulco,
Elevation: 16 ft
Nearby Weather Stations

Elev 16 ft 16.76 °N, 99.75 °W | Updated 58 minutes ago

Overcast
Overcast
82 °F
Feels Like 91 °F
N
6
Wind Variable Wind from NNW

Today
High -- | Low -- °F
--% Chance of Precip.
Yesterday
High -- | Low -- °F
Precip. -- in
7:25 AM 7:53 PM
Full, 100% visible
Pressure 29.88 in
Visibility 7.0 miles
Clouds Scattered Clouds 8000 ft
Mostly Cloudy 10000 ft
Overcast 30000 ft
Heat Index 91 °F
Dew Point 77 °F
Humidity 84%
Rainfall 0.00 in
Snow Depth Not available.
UV 0 out of 12
Pollen Not available.
Air Quality Not available.
Flu Activity Not available.
METAR MMAA 300546Z 34005KT 7SM SCT080 BKN100 OVC300 28/25 A2988 RMK SLP119 52018 954 8/072 OCNL DROPS
Pressure 29.88 in
Visibility 7.0 miles
Clouds Scattered Clouds 8000 ft
Mostly Cloudy 10000 ft
Overcast 30000 ft
Heat Index 91 °F
Dew Point 77 °F
Humidity 84%
Rainfall 0.00 in
Snow Depth Not available.
UV 0 out of 12
Pollen Not available.
Air Quality Not available.
Flu Activity Not available.
METAR MMAA 300546Z 34005KT 7SM SCT080 BKN100 OVC300 28/25 A2988 RMK SLP119 52018 954 8/072 OCNL DROPS

10-Day Weather Forecast

×

Almanac

Astronomy

Aug. 30, 2015 Rise Set
Actual Time
Civil Twilight
Nautical Twilight
Astronomical Twilight
Moon
Length of Visible Light
Length of Day
Tomorrow will be .
, % of the Moon is Illuminated

Today's Extremes

Country Highs Country Lows

Community

WunderPhotos

Upload Photos

1,850,904 photos uploaded!

WunderBlogs® & News

Nearby

Air Quality

  Air Quality AQ Index Pollutant
Not available.

Snow Depth

Station Depth Elevation

Earthquake Activity

City Distance Mag. Time & Date
Minimum magnitude displayed is 2.5.

Coastal Water Temperatures

Place Temperature

Stations

Nearby Weather Stations

Station Location Temp. Windchill Dew Point Humidity Wind Precip. Elev Updated Type